Akeley, Minnesota
Current Conditions -  °F | °C
As of 9:55 AM on Wednesday 26 Nov 2014 (Local Time) from KY49 Reporting Station
Clear Clear  
Wind Chill: -1°   Ceiling: Unl
Heat Index: 10°   Visibility: 10mi
Dew Point:   Wind: 7mph
Humidity: 73%   Direction: 10°N
Pressure: 30.24"   Gusts: NA
Location:  47°N, 94.73°W
Report Text: KY49 261555Z AUTO 01006KT 10SM CLR M12/M16 A3024 RMK AO2 T11231162
Loading
Personal Weather Stations






























Interactive Weather Map New forecast layout! Learn more

10-Day Weather Forecast

Advertisements
Track Severe Weather on mobile